createdAt,value
2019-04-04T00:02:20.814Z,99840.87
2019-04-04T00:05:26.714Z,99842.11
2019-04-04T00:08:32.683Z,99840.80
2019-04-04T00:11:38.671Z,99840.84
2019-04-04T00:14:44.532Z,99835.98
2019-04-04T00:17:51.848Z,99838.67
2019-04-04T00:20:57.942Z,99833.34
2019-04-04T00:24:03.847Z,99825.48
2019-04-04T00:27:12.988Z,99828.04
2019-04-04T00:30:18.024Z,99827.70
2019-04-04T00:33:25.740Z,99819.50
2019-04-04T00:36:34.130Z,99822.34
2019-04-04T00:39:39.885Z,99817.86
2019-04-04T00:42:47.854Z,99813.91
2019-04-04T00:45:53.585Z,99815.73
2019-04-04T00:48:59.294Z,99810.63
2019-04-04T00:52:05.025Z,99814.28
2019-04-04T00:55:10.906Z,99814.90
2019-04-04T00:58:16.618Z,99810.83
2019-04-04T01:01:22.239Z,99810.20
2019-04-04T01:04:30.968Z,99806.36
2019-04-04T01:07:35.798Z,99806.30
2019-04-04T01:10:43.165Z,99802.61
2019-04-04T01:13:48.922Z,99808.02
2019-04-04T01:16:54.600Z,99807.97
2019-04-04T01:20:00.420Z,99799.72
2019-04-04T01:23:06.130Z,99802.89
2019-04-04T01:26:11.952Z,99799.19
2019-04-04T01:29:17.764Z,99800.16
2019-04-04T01:32:23.466Z,99799.47
2019-04-04T01:35:29.214Z,99791.75
2019-04-04T01:38:34.888Z,99799.55
2019-04-04T01:41:40.585Z,99796.05
2019-04-04T01:44:46.243Z,99796.41
2019-04-04T01:47:52.004Z,99792.25
2019-04-04T01:50:57.687Z,99788.03
2019-04-04T01:54:03.395Z,99792.16
2019-04-04T01:57:09.173Z,99788.52
2019-04-04T02:00:15.833Z,99789.19
2019-04-04T02:03:22.657Z,99788.56
2019-04-04T02:06:30.138Z,99786.48
2019-04-04T02:09:35.813Z,99784.80
2019-04-04T02:12:41.511Z,99777.16
2019-04-04T02:15:47.202Z,99778.13
2019-04-04T02:18:53.751Z,99775.97
2019-04-04T02:22:00.375Z,99771.34
2019-04-04T02:25:06.529Z,99763.87
2019-04-04T02:28:12.262Z,99769.41
2019-04-04T02:31:20.616Z,99768.01
2019-04-04T02:34:25.618Z,99763.92
2019-04-04T02:37:31.355Z,99763.59
2019-04-04T02:40:40.778Z,99767.63
2019-04-04T02:43:44.425Z,99765.78
2019-04-04T02:46:50.068Z,99760.10
2019-04-04T02:49:55.818Z,99758.38
2019-04-04T02:53:01.741Z,99759.44
2019-04-04T02:56:07.401Z,99759.40
2019-04-04T02:59:13.098Z,99760.56
2019-04-04T03:02:18.861Z,99759.11
2019-04-04T03:05:24.528Z,99758.06
2019-04-04T03:08:30.388Z,99759.92
2019-04-04T03:11:36.158Z,99757.05
2019-04-04T03:14:41.834Z,99758.63
2019-04-04T03:17:47.471Z,99760.31
2019-04-04T03:20:53.142Z,99769.26
2019-04-04T03:23:58.864Z,99768.73
2019-04-04T03:27:04.598Z,99771.39
2019-04-04T03:30:14.577Z,99766.35
2019-04-04T03:33:17.932Z,99760.88
2019-04-04T03:36:23.593Z,99765.09
2019-04-04T03:39:29.342Z,99762.93
2019-04-04T03:42:34.988Z,99769.07
2019-04-04T03:45:40.722Z,99761.92
2019-04-04T03:48:49.813Z,99764.83
2019-04-04T03:51:53.817Z,99772.03
2019-04-04T03:54:59.522Z,99767.91
2019-04-04T03:58:05.324Z,99772.29
2019-04-04T04:01:13.087Z,99772.91
2019-04-04T04:04:18.400Z,99778.91
2019-04-04T04:07:24.168Z,99774.44
2019-04-04T04:10:33.270Z,99782.37
2019-04-04T04:13:37.196Z,99776.12
2019-04-04T04:16:42.881Z,99784.95
2019-04-04T04:19:48.581Z,99796.78
2019-04-04T04:22:54.251Z,99795.27
2019-04-04T04:26:00.016Z,99798.78
2019-04-04T04:29:05.781Z,99795.92
2019-04-04T04:32:11.499Z,99803.20
2019-04-04T04:35:17.194Z,99804.55
2019-04-04T04:38:25.606Z,99802.16
2019-04-04T04:41:30.225Z,99801.91
2019-04-04T04:44:38.777Z,99804.64
2019-04-04T04:47:43.349Z,99813.58
2019-04-04T04:50:49.036Z,99810.11
2019-04-04T04:53:54.701Z,99813.94
2019-04-04T04:57:03.473Z,99813.47
2019-04-04T05:00:07.931Z,99816.31
2019-04-04T05:03:13.657Z,99816.95
2019-04-04T05:06:19.422Z,99815.53
2019-04-04T05:09:25.119Z,99816.28
2019-04-04T05:12:30.877Z,99820.08
2019-04-04T05:15:36.663Z,99821.89
2019-04-04T05:18:42.374Z,99822.09
2019-04-04T05:21:48.089Z,99821.89
2019-04-04T05:25:07.504Z,99812.17
2019-04-04T05:28:01.243Z,99815.60
2019-04-04T05:31:06.938Z,99822.05
2019-04-04T05:34:12.616Z,99822.60
2019-04-04T05:37:18.371Z,99817.19
2019-04-04T05:40:24.325Z,99805.67
2019-04-04T05:43:29.931Z,99811.34
2019-04-04T05:46:35.683Z,99813.66
2019-04-04T05:49:41.381Z,99810.48
2019-04-04T05:52:47.067Z,99814.25
2019-04-04T05:55:54.556Z,99815.19
2019-04-04T05:59:00.609Z,99816.99
2019-04-04T06:02:06.509Z,99819.20
2019-04-04T06:05:12.178Z,99811.81
2019-04-04T06:08:17.907Z,99813.17
2019-04-04T06:11:23.650Z,99806.06
2019-04-04T06:14:29.986Z,99808.83
2019-04-04T06:17:38.792Z,99807.83
2019-04-04T06:20:44.053Z,99808.42
2019-04-04T06:23:49.799Z,99808.50
2019-04-04T06:26:55.567Z,99817.01
2019-04-04T06:30:01.233Z,99811.64
2019-04-04T06:33:07.709Z,99812.25
2019-04-04T06:36:13.420Z,99802.53
2019-04-04T06:39:19.167Z,99802.37
2019-04-04T06:42:25.246Z,99807.88
2019-04-04T06:45:31.155Z,99812.11
2019-04-04T06:48:36.803Z,99812.86
2019-04-04T06:51:46.193Z,99814.20
2019-04-04T06:54:49.946Z,99813.36
2019-04-04T06:57:55.635Z,99809.31
2019-04-04T07:01:01.348Z,99808.56
2019-04-04T07:04:07.095Z,99805.95
2019-04-04T07:07:13.160Z,99801.97
2019-04-04T07:10:21.274Z,99803.26
2019-04-04T07:13:28.085Z,99795.80
2019-04-04T07:16:36.230Z,99801.83
2019-04-04T07:19:41.087Z,99801.01
2019-04-04T07:22:46.804Z,99800.02
2019-04-04T07:25:53.600Z,99799.41
2019-04-04T07:29:00.125Z,99794.97
2019-04-04T07:32:07.204Z,99791.22
2019-04-04T07:35:16.769Z,99796.83
2019-04-04T07:38:21.055Z,99789.58
2019-04-04T07:41:26.752Z,99790.84
2019-04-04T07:44:32.497Z,99791.05
2019-04-04T07:47:38.170Z,99790.82
2019-04-04T07:50:43.860Z,99782.38
2019-04-04T07:53:49.590Z,99792.22
2019-04-04T07:56:55.315Z,99784.27
2019-04-04T08:00:00.995Z,99784.91
2019-04-04T08:03:08.551Z,99789.86
2019-04-04T08:06:14.286Z,99787.30
2019-04-04T08:09:20.169Z,99789.58
2019-04-04T08:12:26.365Z,99788.08
2019-04-04T08:15:32.211Z,99791.00
2019-04-04T08:18:38.997Z,99790.25
2019-04-04T08:21:44.705Z,99787.98
2019-04-04T08:24:50.441Z,99782.81
2019-04-04T08:27:56.122Z,99780.90
2019-04-04T08:31:01.812Z,99778.38
2019-04-04T08:34:07.667Z,99778.25
2019-04-04T08:37:13.380Z,99774.39
2019-04-04T08:40:19.062Z,99772.44
2019-04-04T08:43:24.915Z,99768.30
2019-04-04T08:46:30.598Z,99764.43
2019-04-04T08:49:36.471Z,99756.64
2019-04-04T08:52:42.148Z,99755.55
2019-04-04T08:55:47.908Z,99757.84
2019-04-04T08:58:53.594Z,99752.25
2019-04-04T09:01:59.321Z,99743.91
2019-04-04T09:05:12.267Z,99739.48
2019-04-04T09:08:14.685Z,99743.40
2019-04-04T09:11:20.385Z,99738.98
2019-04-04T09:14:27.190Z,99728.97
2019-04-04T09:17:32.848Z,99736.44
2019-04-04T09:20:38.686Z,99735.61
2019-04-04T09:23:44.371Z,99729.98
2019-04-04T09:26:50.573Z,99728.22
2019-04-04T09:29:56.462Z,99722.45
2019-04-04T09:33:02.228Z,99712.41
2019-04-04T09:36:08.097Z,99712.34
2019-04-04T09:39:13.950Z,99709.31
2019-04-04T09:42:19.579Z,99702.39
2019-04-04T09:45:25.287Z,99705.86
2019-04-04T09:48:30.991Z,99701.77
2019-04-04T09:51:36.767Z,99694.45
2019-04-04T09:54:42.511Z,99692.82
2019-04-04T09:57:48.167Z,99689.23
2019-04-04T10:00:53.999Z,99682.42
2019-04-04T10:03:59.702Z,99688.34
2019-04-04T10:07:05.555Z,99684.12
2019-04-04T10:10:14.901Z,99688.98
2019-04-04T10:13:20.626Z,99683.22
2019-04-04T10:16:26.354Z,99678.24
2019-04-04T10:19:32.024Z,99668.03
2019-04-04T10:22:37.849Z,99665.77
2019-04-04T10:25:43.544Z,99661.59
2019-04-04T10:28:49.355Z,99653.68
2019-04-04T10:31:55.011Z,99646.41
2019-04-04T10:35:00.759Z,99646.89
2019-04-04T10:38:06.477Z,99640.65
2019-04-04T10:41:12.151Z,99641.88
2019-04-04T10:44:17.870Z,99632.45
2019-04-04T10:47:23.626Z,99637.08
2019-04-04T10:50:29.332Z,99625.40
2019-04-04T10:53:35.007Z,99622.58
2019-04-04T10:56:40.700Z,99615.85
2019-04-04T10:59:46.373Z,99604.41
2019-04-04T11:02:52.149Z,99603.24
2019-04-04T11:05:57.856Z,99602.44
2019-04-04T11:09:04.588Z,99591.47
2019-04-04T11:12:10.906Z,99591.47
2019-04-04T11:15:16.582Z,99585.70
2019-04-04T11:18:22.337Z,99582.92
2019-04-04T11:21:28.014Z,99588.52
2019-04-04T11:24:33.721Z,99570.50
2019-04-04T11:27:39.454Z,99561.55
2019-04-04T11:30:45.404Z,99552.79
2019-04-04T11:33:51.102Z,99553.90
2019-04-04T11:36:56.824Z,99547.95
2019-04-04T11:40:02.496Z,99542.41
2019-04-04T11:43:08.266Z,99538.03
2019-04-04T11:46:14.932Z,99538.78
2019-04-04T11:49:20.689Z,99526.38
2019-04-04T11:52:26.360Z,99526.38
2019-04-04T11:55:32.107Z,99527.13
2019-04-04T11:58:37.826Z,99520.06
2019-04-04T12:01:44.444Z,99512.83
2019-04-04T12:04:50.118Z,99506.77
2019-04-04T12:07:55.884Z,99496.55
2019-04-04T12:11:01.684Z,99499.70
2019-04-04T12:14:07.352Z,99493.42
2019-04-04T12:17:13.093Z,99489.52
2019-04-04T12:20:18.986Z,99476.13
2019-04-04T12:23:24.714Z,99476.70
2019-04-04T12:26:30.394Z,99466.42
2019-04-04T12:29:36.109Z,99463.62
2019-04-04T12:32:41.773Z,99468.00
2019-04-04T12:35:47.638Z,99463.81
2019-04-04T12:38:53.317Z,99451.31
2019-04-04T12:41:58.985Z,99447.75
2019-04-04T12:45:05.514Z,99447.75
2019-04-04T12:48:11.303Z,99445.60
2019-04-04T12:51:17.046Z,99437.48
2019-04-04T12:54:22.820Z,99438.16
2019-04-04T12:57:28.596Z,99439.59
2019-04-04T13:00:34.314Z,99429.00
2019-04-04T13:03:39.985Z,99429.83
2019-04-04T13:06:45.906Z,99425.55
2019-04-04T13:09:51.569Z,99418.23
2019-04-04T13:12:57.307Z,99411.71
2019-04-04T13:16:03.035Z,99413.13
2019-04-04T13:19:08.746Z,99401.72
2019-04-04T13:22:14.437Z,99388.28
2019-04-04T13:25:20.322Z,99388.28
2019-04-04T13:28:27.211Z,99388.39
2019-04-04T13:31:32.945Z,99392.98
2019-04-04T13:34:38.620Z,99381.58
2019-04-04T13:37:44.366Z,99381.58
2019-04-04T13:40:50.205Z,99378.52
2019-04-04T13:43:55.891Z,99380.76
2019-04-04T13:47:03.177Z,99378.81
2019-04-04T13:50:12.433Z,99373.78
2019-04-04T13:53:20.602Z,99368.63
2019-04-04T13:56:25.301Z,99364.39
2019-04-04T13:59:30.978Z,99372.77
2019-04-04T14:02:36.739Z,99372.77
2019-04-04T14:05:42.435Z,99361.22
2019-04-04T14:08:48.174Z,99359.88
2019-04-04T14:11:53.931Z,99351.41
2019-04-04T14:14:59.661Z,99342.06
2019-04-04T14:18:22.152Z,99343.98
2019-04-04T14:21:27.859Z,99348.02
2019-04-04T14:24:33.540Z,99339.88
2019-04-04T14:27:39.201Z,99338.25
2019-04-04T14:30:44.932Z,99338.70
2019-04-04T14:33:50.643Z,99341.77
2019-04-04T14:36:56.349Z,99343.30
2019-04-04T14:40:02.040Z,99341.62
2019-04-04T14:43:07.893Z,99336.94
2019-04-04T14:46:13.589Z,99341.15
2019-04-04T14:49:19.261Z,99331.85
2019-04-04T14:52:25.047Z,99327.74
2019-04-04T14:55:30.726Z,99337.09
2019-04-04T14:58:36.550Z,99336.62
2019-04-04T15:01:42.273Z,99340.81
2019-04-04T15:04:47.971Z,99333.22
2019-04-04T15:07:53.737Z,99334.14
2019-04-04T15:10:59.432Z,99329.80
2019-04-04T15:14:05.368Z,99326.84
2019-04-04T15:17:11.046Z,99325.34
2019-04-04T15:20:16.982Z,99325.09
2019-04-04T15:23:22.653Z,99324.88
2019-04-04T15:26:28.401Z,99327.09
2019-04-04T15:29:34.176Z,99325.02
2019-04-04T15:32:39.870Z,99328.66
2019-04-04T15:35:45.615Z,99321.09
2019-04-04T15:38:51.402Z,99321.16
2019-04-04T15:41:57.088Z,99325.33
2019-04-04T15:45:02.816Z,99325.74
2019-04-04T15:48:08.939Z,99317.52
2019-04-04T15:51:14.672Z,99319.05
2019-04-04T15:54:20.393Z,99318.34
2019-04-04T15:57:26.079Z,99319.22
2019-04-04T16:00:31.841Z,99325.84
2019-04-04T16:03:37.554Z,99323.61
2019-04-04T16:06:43.257Z,99321.72
2019-04-04T16:09:48.996Z,99323.06
2019-04-04T16:12:54.699Z,99325.75
2019-04-04T16:16:01.608Z,99314.95
2019-04-04T16:19:07.441Z,99316.92
2019-04-04T16:22:13.206Z,99315.48
2019-04-04T16:25:19.071Z,99313.87
2019-04-04T16:28:24.786Z,99319.58
2019-04-04T16:31:30.484Z,99316.13
2019-04-04T16:34:36.274Z,99324.00
2019-04-04T16:37:42.097Z,99324.22
2019-04-04T16:40:47.829Z,99319.02
2019-04-04T16:43:53.650Z,99331.88
2019-04-04T16:46:59.310Z,99328.39
2019-04-04T16:50:05.574Z,99326.52
2019-04-04T16:53:11.231Z,99323.80
2019-04-04T16:56:17.002Z,99322.59
2019-04-04T16:59:23.818Z,99327.36
2019-04-04T17:02:29.585Z,99323.74
2019-04-04T17:05:35.380Z,99321.53
2019-04-04T17:08:41.056Z,99320.05
2019-04-04T17:11:46.743Z,99325.23
2019-04-04T17:14:52.429Z,99325.59
2019-04-04T17:17:58.175Z,99324.20
2019-04-04T17:21:03.864Z,99330.36
2019-04-04T17:27:40.835Z,99333.66
2019-04-04T17:30:46.692Z,99338.92
2019-04-04T17:33:52.686Z,99344.47
2019-04-04T17:36:58.844Z,99346.94
2019-04-04T17:40:05.296Z,99343.09
2019-04-04T17:43:10.958Z,99344.95
2019-04-04T17:46:17.100Z,99356.03
2019-04-04T17:49:22.937Z,99362.65
2019-04-04T17:52:28.790Z,99361.00
2019-04-04T17:55:34.722Z,99372.44
2019-04-04T17:58:40.556Z,99373.45
2019-04-04T18:01:46.299Z,99379.91
2019-04-04T18:04:51.979Z,99382.92
2019-04-04T18:07:57.681Z,99383.11
2019-04-04T18:11:03.528Z,99382.18
2019-04-04T18:14:09.361Z,99388.17
2019-04-04T18:17:15.080Z,99392.22
2019-04-04T18:20:21.228Z,99389.95
2019-04-04T18:23:26.904Z,99393.38
2019-04-04T18:26:32.617Z,99384.50
2019-04-04T18:29:38.374Z,99389.46
2019-04-04T18:32:44.078Z,99386.20
2019-04-04T18:35:49.882Z,99398.48
2019-04-04T18:38:55.519Z,99397.52
2019-04-04T18:42:01.190Z,99402.06
2019-04-04T18:45:07.106Z,99398.30
2019-04-04T18:48:13.927Z,99402.09
2019-04-04T18:51:19.669Z,99401.14
2019-04-04T18:54:25.403Z,99412.61
2019-04-04T18:57:31.103Z,99414.94
2019-04-04T19:00:37.105Z,99409.70
2019-04-04T19:03:42.776Z,99413.55
2019-04-04T19:06:48.746Z,99412.79
2019-04-04T19:09:55.579Z,99413.42
2019-04-04T19:13:05.545Z,99421.17
2019-04-04T19:16:10.616Z,99419.23
2019-04-04T19:19:16.377Z,99418.63
2019-04-04T19:22:22.059Z,99421.59
2019-04-04T19:25:27.818Z,99428.82
2019-04-04T19:28:34.021Z,99418.33
2019-04-04T19:31:39.797Z,99421.29
2019-04-04T19:34:45.623Z,99436.98
2019-04-04T19:38:00.016Z,99430.75
2019-04-04T19:40:58.850Z,99443.19
2019-04-04T19:44:04.918Z,99443.69
2019-04-04T19:47:10.639Z,99441.22
2019-04-04T19:50:16.671Z,99443.71
2019-04-04T19:53:22.465Z,99442.89
2019-04-04T19:56:28.213Z,99442.80
2019-04-04T19:59:34.123Z,99447.42
2019-04-04T20:02:44.121Z,99457.66
2019-04-04T20:05:50.011Z,99458.14
2019-04-04T20:08:55.741Z,99460.92
2019-04-04T20:12:01.422Z,99467.55
2019-04-04T20:15:07.446Z,99465.92
2019-04-04T20:18:13.388Z,99477.16
2019-04-04T20:21:19.065Z,99480.52
2019-04-04T20:24:24.779Z,99488.73
2019-04-04T20:27:30.497Z,99481.45
2019-04-04T20:30:40.165Z,99492.80
2019-04-04T20:33:45.870Z,99495.78
2019-04-04T20:36:51.672Z,99505.50
2019-04-04T20:39:57.341Z,99506.08
2019-04-04T20:43:03.048Z,99512.17
2019-04-04T20:46:08.705Z,99519.91
2019-04-04T20:49:14.534Z,99517.92
2019-04-04T20:52:20.196Z,99515.55
2019-04-04T20:55:25.863Z,99511.88
2019-04-04T20:58:31.530Z,99515.77
2019-04-04T21:01:37.413Z,99525.95
2019-04-04T21:04:43.070Z,99530.20
2019-04-04T21:07:48.795Z,99522.45
2019-04-04T21:10:54.595Z,99526.93
2019-04-04T21:14:00.252Z,99536.70
2019-04-04T21:17:05.915Z,99538.68
2019-04-04T21:20:11.571Z,99539.08
2019-04-04T21:23:17.394Z,99546.94
2019-04-04T21:26:23.118Z,99535.63
2019-04-04T21:29:28.962Z,99530.92
2019-04-04T21:32:34.771Z,99533.65
2019-04-04T21:35:40.498Z,99525.47
2019-04-04T21:38:46.219Z,99535.69
2019-04-04T21:41:51.923Z,99534.78
2019-04-04T21:44:57.588Z,99534.15
2019-04-04T21:48:03.409Z,99532.14
2019-04-04T21:51:09.173Z,99542.63
2019-04-04T21:54:14.995Z,99539.46
2019-04-04T21:57:20.663Z,99542.02
2019-04-04T22:00:29.072Z,99540.65
2019-04-04T22:03:36.833Z,99540.42
2019-04-04T22:06:42.715Z,99547.83
2019-04-04T22:09:48.453Z,99547.66
2019-04-04T22:12:54.142Z,99557.68
2019-04-04T22:15:59.808Z,99556.94
2019-04-04T22:19:05.488Z,99559.30
2019-04-04T22:22:12.284Z,99561.47
2019-04-04T22:25:17.938Z,99559.37
2019-04-04T22:28:23.666Z,99555.82
2019-04-04T22:31:29.323Z,99559.80
2019-04-04T22:34:34.995Z,99567.95
2019-04-04T22:37:40.682Z,99571.59
2019-04-04T22:40:46.455Z,99573.06
2019-04-04T22:44:02.901Z,99567.92
2019-04-04T22:46:59.618Z,99575.98
2019-04-04T22:50:05.817Z,99577.47
2019-04-04T22:53:11.502Z,99572.58
2019-04-04T22:56:17.255Z,99570.96
2019-04-04T22:59:22.940Z,99573.02
2019-04-04T23:02:28.620Z,99567.77
2019-04-04T23:05:34.301Z,99566.02
2019-04-04T23:08:39.979Z,99573.17
2019-04-04T23:11:45.629Z,99568.86
2019-04-04T23:14:51.382Z,99567.72
2019-04-04T23:17:57.014Z,99565.20
2019-04-04T23:21:02.725Z,99565.59
2019-04-04T23:24:08.395Z,99568.09
2019-04-04T23:27:14.166Z,99571.66
2019-04-04T23:30:20.001Z,99566.72
2019-04-04T23:33:25.682Z,99558.16
2019-04-04T23:36:35.339Z,99566.13
2019-04-04T23:39:38.774Z,99568.04
2019-04-04T23:42:44.514Z,99563.47
2019-04-04T23:45:50.167Z,99555.93
2019-04-04T23:48:55.832Z,99559.20
2019-04-04T23:52:01.487Z,99565.13
2019-04-04T23:55:07.599Z,99566.60
2019-04-04T23:58:13.268Z,99570.83
